Time;durP1;ratioP1;P1;durP2;ratioP2;P2;SDS_P1;SDS_P2;PMS_P1;PMS_P2;Temp;Humidity;BMP_temperature;BMP_pressure;BME280_temperature;BME280_humidity;BME280_pressure;Samples;Min_cycle;Max_cycle;Signal;HPM_P1;HPM_P2
2021/10/03 00:00:48;;;;;;;14.20;7.00;;;15.60;99.90;;;;;;5019790;28;20469;-82
2021/10/03 00:03:18;;;;;;;12.97;7.30;;;15.60;99.90;;;;;;5018494;28;20429;-82
2021/10/03 00:05:46;;;;;;;13.90;6.70;;;15.60;99.90;;;;;;5019433;28;20440;-82
2021/10/03 00:08:11;;;;;;;11.40;7.50;;;15.60;99.90;;;;;;5018704;28;20448;-81
2021/10/03 00:10:37;;;;;;;11.63;7.43;;;15.60;99.90;;;;;;5018870;28;20413;-82
2021/10/03 00:13:03;;;;;;;10.50;7.00;;;15.60;99.90;;;;;;5019797;28;20185;-82
2021/10/03 00:15:32;;;;;;;14.37;8.67;;;15.60;99.90;;;;;;5019217;28;20200;-82
2021/10/03 00:17:58;;;;;;;15.10;7.50;;;15.60;99.90;;;;;;5017834;28;20181;-82
2021/10/03 00:20:25;;;;;;;13.20;7.47;;;15.60;99.90;;;;;;5019568;28;20415;-82
2021/10/03 00:22:50;;;;;;;11.83;7.23;;;15.60;99.90;;;;;;5019776;28;20413;-81
2021/10/03 00:25:17;;;;;;;13.20;7.30;;;15.60;99.90;;;;;;5019805;28;20479;-83
2021/10/03 00:27:45;;;;;;;11.00;7.10;;;15.60;99.90;;;;;;5001768;28;20185;-82
2021/10/03 00:30:13;;;;;;;12.70;7.70;;;15.60;99.90;;;;;;4986491;28;20428;-82
2021/10/03 00:32:39;;;;;;;11.37;7.07;;;15.70;99.90;;;;;;5002692;28;20421;-82
2021/10/03 00:35:05;;;;;;;12.10;7.57;;;15.70;99.90;;;;;;5018160;28;20423;-82
2021/10/03 00:37:30;;;;;;;14.50;7.97;;;15.60;99.90;;;;;;5018876;28;20453;-82
2021/10/03 00:39:56;;;;;;;11.77;7.57;;;15.60;99.90;;;;;;5018056;28;20417;-81
2021/10/03 00:42:22;;;;;;;9.97;7.13;;;15.70;99.90;;;;;;5001884;28;20174;-82
2021/10/03 00:44:48;;;;;;;11.77;6.70;;;15.60;99.90;;;;;;5019866;28;20201;-82
2021/10/03 00:47:14;;;;;;;9.73;6.80;;;15.60;99.90;;;;;;5019201;28;20428;-82
2021/10/03 00:49:40;;;;;;;10.20;7.40;;;15.60;99.90;;;;;;5020271;28;20540;-82
2021/10/03 00:52:07;;;;;;;13.13;7.13;;;15.60;99.90;;;;;;5018083;28;20424;-82
2021/10/03 00:54:35;;;;;;;12.60;7.00;;;15.60;99.90;;;;;;5020278;28;20236;-82
2021/10/03 00:57:07;;;;;;;14.33;8.60;;;15.60;99.90;;;;;;5018148;28;20471;-81
2021/10/03 00:59:34;;;;;;;10.70;6.97;;;15.60;99.90;;;;;;5017642;28;20431;-82
2021/10/03 01:02:01;;;;;;;9.50;6.40;;;15.60;99.90;;;;;;5001558;28;20428;-82
2021/10/03 01:04:26;;;;;;;10.47;7.00;;;15.60;99.90;;;;;;5016991;28;20504;-81
2021/10/03 01:06:52;;;;;;;12.10;6.93;;;15.60;99.90;;;;;;5016806;28;20441;-82
2021/10/03 01:09:20;;;;;;;11.63;7.50;;;15.60;99.90;;;;;;5016806;28;20186;-82
2021/10/03 01:11:46;;;;;;;9.57;7.13;;;15.60;99.90;;;;;;5016428;28;20418;-82
2021/10/03 01:14:12;;;;;;;11.27;7.20;;;15.50;99.90;;;;;;5017822;28;20413;-81
2021/10/03 01:16:39;;;;;;;11.67;7.23;;;15.60;99.90;;;;;;5018164;28;20444;-81
2021/10/03 01:19:06;;;;;;;12.80;6.70;;;15.50;99.90;;;;;;5017146;28;20205;-81
2021/10/03 01:21:32;;;;;;;12.23;7.70;;;15.50;99.90;;;;;;5016227;28;20865;-81
2021/10/03 01:23:58;;;;;;;11.20;6.97;;;15.50;99.90;;;;;;4999988;28;20496;-81
2021/10/03 01:26:24;;;;;;;10.13;7.10;;;15.50;99.90;;;;;;5017348;28;20620;-81
2021/10/03 01:28:53;;;;;;;12.70;7.20;;;15.50;99.90;;;;;;5018035;28;20871;-82
2021/10/03 01:31:23;;;;;;;10.90;6.33;;;15.50;99.90;;;;;;5021694;28;20482;-80
2021/10/03 01:33:49;;;;;;;11.97;6.90;;;15.50;99.90;;;;;;5003722;28;20974;-82
2021/10/03 01:36:15;;;;;;;13.10;7.83;;;15.50;99.90;;;;;;5003167;28;20445;-81
2021/10/03 01:38:41;;;;;;;23.20;6.70;;;15.50;99.90;;;;;;5019541;28;20185;-81
2021/10/03 01:41:07;;;;;;;9.60;5.63;;;15.50;99.90;;;;;;5020501;28;20189;-81
2021/10/03 01:43:33;;;;;;;12.00;6.40;;;15.50;99.90;;;;;;5020581;28;20544;-81
2021/10/03 01:46:01;;;;;;;11.17;6.70;;;15.50;99.90;;;;;;5020483;28;20499;-81
2021/10/03 01:48:27;;;;;;;10.67;6.60;;;15.50;99.90;;;;;;5020489;28;20821;-81
2021/10/03 01:50:58;;;;;;;11.03;6.57;;;15.60;99.90;;;;;;5019764;28;20452;-81
2021/10/03 01:53:42;;;;;;;10.50;6.90;;;15.50;99.90;;;;;;5020960;28;20197;-80
2021/10/03 01:56:09;;;;;;;14.93;7.70;;;15.50;99.90;;;;;;5019013;28;20472;-82
2021/10/03 01:58:39;;;;;;;9.03;5.90;;;15.50;99.90;;;;;;5002916;28;20420;-81
2021/10/03 02:01:13;;;;;;;14.43;7.70;;;15.40;99.90;;;;;;5019096;28;20753;-82
2021/10/03 02:03:38;;;;;;;12.10;6.60;;;15.40;99.90;;;;;;5019843;28;20552;-81
2021/10/03 02:06:04;;;;;;;9.67;6.60;;;15.40;99.90;;;;;;5018104;28;20912;-81
2021/10/03 02:08:30;;;;;;;12.67;7.00;;;15.40;99.90;;;;;;5017713;28;20190;-81
2021/10/03 02:10:55;;;;;;;8.90;6.57;;;15.40;99.90;;;;;;5018876;28;20186;-80
2021/10/03 02:13:22;;;;;;;11.53;6.43;;;15.40;99.90;;;;;;5001247;28;20189;-81
2021/10/03 02:15:48;;;;;;;12.83;6.60;;;15.40;99.90;;;;;;5018940;28;20186;-80
2021/10/03 02:18:16;;;;;;;11.10;7.30;;;15.40;99.90;;;;;;5001617;28;20496;-81
2021/10/03 02:20:44;;;;;;;13.10;6.17;;;15.40;99.90;;;;;;5017264;28;20905;-81
2021/10/03 02:23:12;;;;;;;12.07;7.30;;;15.40;99.90;;;;;;5017109;28;20421;-79
2021/10/03 02:25:43;;;;;;;13.83;8.10;;;15.40;99.90;;;;;;5017519;28;20471;-80
2021/10/03 02:28:11;;;;;;;10.50;6.67;;;15.30;99.90;;;;;;5017836;28;20412;-81
2021/10/03 02:30:38;;;;;;;9.50;6.43;;;15.40;99.90;;;;;;5019458;28;20889;-81
2021/10/03 02:33:03;;;;;;;8.00;6.27;;;15.30;99.90;;;;;;5017751;28;20467;-81
2021/10/03 02:35:29;;;;;;;8.10;5.77;;;15.30;99.90;;;;;;5002180;28;20495;-81
2021/10/03 02:37:55;;;;;;;10.60;7.33;;;15.30;99.90;;;;;;5018678;28;20174;-80
2021/10/03 02:40:20;;;;;;;13.07;7.27;;;15.40;99.90;;;;;;5002799;28;20174;-80
2021/10/03 02:42:46;;;;;;;8.67;6.40;;;15.40;99.90;;;;;;5019005;28;20178;-80
2021/10/03 02:45:13;;;;;;;11.00;6.13;;;15.40;99.90;;;;;;5018602;28;20201;-80
2021/10/03 02:47:39;;;;;;;10.90;7.00;;;15.40;99.90;;;;;;5019557;28;20162;-80
2021/10/03 02:50:06;;;;;;;10.27;5.87;;;15.40;99.90;;;;;;5019730;28;20412;-80
2021/10/03 02:52:33;;;;;;;9.97;7.23;;;15.40;99.90;;;;;;5017106;28;20423;-80
2021/10/03 02:54:58;;;;;;;10.30;6.40;;;15.40;99.90;;;;;;5018365;28;20460;-81
2021/10/03 02:57:24;;;;;;;13.97;6.70;;;15.40;99.90;;;;;;5018062;28;20440;-81
2021/10/03 02:59:49;;;;;;;8.20;6.00;;;15.40;99.90;;;;;;5017149;28;20182;-80
2021/10/03 03:02:15;;;;;;;11.20;6.50;;;15.40;99.90;;;;;;5019912;28;20273;-80
2021/10/03 03:04:44;;;;;;;9.50;5.70;;;15.40;99.90;;;;;;5022251;28;20237;-80
2021/10/03 03:07:10;;;;;;;8.73;6.27;;;15.40;99.90;;;;;;5020961;28;20248;-80
2021/10/03 03:09:35;;;;;;;10.47;6.10;;;15.30;99.90;;;;;;5022540;28;20416;-79
2021/10/03 03:12:01;;;;;;;11.00;6.70;;;15.30;99.90;;;;;;5022679;28;20177;-81
2021/10/03 03:14:29;;;;;;;11.73;6.23;;;15.30;99.90;;;;;;5021469;28;20192;-81
2021/10/03 03:16:55;;;;;;;9.67;5.93;;;15.30;99.90;;;;;;5019390;28;20206;-81
2021/10/03 03:19:20;;;;;;;9.03;6.70;;;15.30;99.90;;;;;;5017809;28;20429;-79
2021/10/03 03:21:46;;;;;;;9.97;6.77;;;15.30;99.90;;;;;;5018388;28;20715;-82
2021/10/03 03:24:13;;;;;;;10.40;5.90;;;15.30;99.90;;;;;;5018736;28;20202;-80
2021/10/03 03:26:39;;;;;;;10.13;6.47;;;15.40;99.90;;;;;;5018252;28;20185;-79
2021/10/03 03:29:04;;;;;;;8.03;5.57;;;15.40;99.90;;;;;;5018076;28;20504;-80
2021/10/03 03:31:31;;;;;;;8.77;5.80;;;15.30;99.90;;;;;;5018967;28;20185;-81
2021/10/03 03:33:57;;;;;;;9.37;6.20;;;15.30;99.90;;;;;;5019948;28;20230;-80
2021/10/03 03:36:23;;;;;;;10.50;5.63;;;15.30;99.90;;;;;;5018967;28;20507;-80
2021/10/03 03:38:49;;;;;;;9.33;5.70;;;15.30;99.90;;;;;;5019125;28;20448;-81
2021/10/03 03:41:15;;;;;;;9.47;6.30;;;15.30;99.90;;;;;;5018346;28;20780;-79
2021/10/03 03:43:42;;;;;;;10.20;6.30;;;15.30;99.90;;;;;;5017643;28;20457;-80
2021/10/03 03:46:08;;;;;;;9.27;6.03;;;15.40;99.90;;;;;;5018807;28;20272;-80
2021/10/03 03:48:34;;;;;;;9.60;5.40;;;15.40;99.90;;;;;;5018179;28;20416;-82
2021/10/03 03:51:03;;;;;;;9.23;6.03;;;15.40;99.90;;;;;;5018521;28;20443;-80
2021/10/03 03:53:32;;;;;;;9.73;6.60;;;15.40;99.90;;;;;;5019649;28;20753;-80
2021/10/03 03:55:58;;;;;;;12.40;6.80;;;15.40;99.90;;;;;;5018296;28;20450;-80
2021/10/03 03:58:23;;;;;;;9.07;5.93;;;15.30;99.90;;;;;;5020264;28;20416;-80
2021/10/03 04:00:49;;;;;;;8.20;6.30;;;15.40;99.90;;;;;;5021894;28;20193;-80
2021/10/03 04:03:15;;;;;;;9.50;6.00;;;15.40;99.90;;;;;;5020469;28;20182;-80
2021/10/03 04:05:42;;;;;;;10.63;6.13;;;15.40;99.90;;;;;;5019309;28;20263;-80
2021/10/03 04:08:07;;;;;;;7.30;5.93;;;15.40;99.90;;;;;;5017870;28;20194;-80
2021/10/03 04:10:33;;;;;;;9.43;6.60;;;15.40;99.90;;;;;;5001281;28;20419;-80
2021/10/03 04:13:01;;;;;;;13.07;7.50;;;15.40;99.90;;;;;;5018626;28;20197;-82
2021/10/03 04:15:27;;;;;;;9.30;6.20;;;15.40;99.90;;;;;;5017774;28;20208;-80
2021/10/03 04:17:52;;;;;;;10.07;6.47;;;15.40;99.90;;;;;;5017465;28;20785;-81
2021/10/03 04:20:18;;;;;;;12.73;7.23;;;15.40;99.90;;;;;;5019560;28;20318;-79
2021/10/03 04:22:44;;;;;;;8.50;5.70;;;15.40;99.90;;;;;;5017990;28;20169;-82
2021/10/03 04:25:10;;;;;;;9.73;6.87;;;15.30;99.90;;;;;;5017016;28;20236;-81
2021/10/03 04:27:35;;;;;;;8.60;5.77;;;15.30;99.90;;;;;;5025649;28;20423;-81
2021/10/03 04:30:02;;;;;;;15.00;6.97;;;15.30;99.90;;;;;;5038339;28;20170;-82
2021/10/03 04:32:28;;;;;;;9.00;5.90;;;15.20;99.90;;;;;;5024014;28;20183;-82
2021/10/03 04:34:53;;;;;;;8.00;4.90;;;15.20;99.90;;;;;;5020571;28;20432;-82
2021/10/03 04:37:19;;;;;;;9.30;6.80;;;15.20;99.90;;;;;;5003453;28;20206;-83
2021/10/03 04:39:45;;;;;;;9.43;6.80;;;15.20;99.90;;;;;;5003554;28;20183;-84
2021/10/03 04:42:10;;;;;;;8.63;6.00;;;15.20;99.90;;;;;;5018829;28;20169;-83
2021/10/03 04:44:36;;;;;;;9.87;7.03;;;15.20;99.90;;;;;;5033818;28;20625;-84
2021/10/03 04:47:02;;;;;;;10.63;6.17;;;15.20;99.90;;;;;;5017409;28;20198;-84
2021/10/03 04:49:27;;;;;;;8.10;6.27;;;15.20;99.90;;;;;;5017654;28;20230;-83
2021/10/03 04:51:53;;;;;;;10.90;6.37;;;15.20;99.90;;;;;;5033921;28;20319;-83
2021/10/03 04:54:18;;;;;;;11.73;6.87;;;15.20;99.90;;;;;;5034541;28;20704;-83
2021/10/03 04:56:44;;;;;;;11.33;7.20;;;15.30;99.90;;;;;;5031718;28;20568;-83
2021/10/03 04:59:09;;;;;;;10.50;6.40;;;15.20;99.90;;;;;;5017927;28;20245;-81
2021/10/03 05:01:35;;;;;;;10.63;6.70;;;15.20;99.90;;;;;;4998406;28;20194;-81
2021/10/03 05:04:00;;;;;;;10.23;6.37;;;15.20;99.90;;;;;;5014015;28;20216;-80
2021/10/03 05:06:26;;;;;;;7.93;5.70;;;15.20;99.90;;;;;;5017108;28;20202;-80
2021/10/03 05:08:53;;;;;;;10.73;6.80;;;15.20;99.90;;;;;;5022296;28;20199;-79
2021/10/03 05:11:19;;;;;;;15.13;7.40;;;15.30;99.90;;;;;;5035402;28;20415;-80
2021/10/03 05:13:47;;;;;;;9.83;6.27;;;15.20;99.90;;;;;;5035285;28;20410;-80
2021/10/03 05:16:13;;;;;;;13.13;6.97;;;15.30;99.90;;;;;;5035153;28;20290;-80
2021/10/03 05:18:38;;;;;;;9.87;6.80;;;15.30;99.90;;;;;;5015261;28;20514;-80
2021/10/03 05:21:04;;;;;;;12.43;6.30;;;15.30;99.90;;;;;;5017323;28;20182;-80
2021/10/03 05:23:32;;;;;;;8.67;5.70;;;15.30;99.90;;;;;;5014327;28;20187;-81
2021/10/03 05:25:58;;;;;;;9.93;7.00;;;15.30;99.90;;;;;;5014624;28;20528;-81
2021/10/03 05:28:23;;;;;;;9.70;7.33;;;15.40;99.90;;;;;;5015434;28;20463;-80
2021/10/03 05:30:49;;;;;;;11.40;7.90;;;15.40;99.90;;;;;;5015821;28;20170;-81
2021/10/03 05:33:14;;;;;;;12.23;6.77;;;15.40;99.90;;;;;;5014273;28;20174;-80
2021/10/03 05:35:40;;;;;;;14.50;7.70;;;15.40;99.90;;;;;;5032683;28;20196;-80
2021/10/03 05:38:06;;;;;;;10.80;7.53;;;15.30;99.90;;;;;;5034463;28;20184;-80
2021/10/03 05:40:32;;;;;;;10.30;6.27;;;15.30;99.90;;;;;;5031824;28;20268;-79
2021/10/03 05:42:59;;;;;;;11.40;8.00;;;15.40;99.90;;;;;;5026509;28;20257;-80
2021/10/03 05:45:25;;;;;;;11.20;6.83;;;15.40;99.90;;;;;;5028014;28;20598;-80
2021/10/03 05:47:50;;;;;;;9.80;7.07;;;15.40;99.90;;;;;;5032887;28;20835;-80
2021/10/03 05:50:16;;;;;;;11.00;6.97;;;15.40;99.90;;;;;;5033268;28;20420;-82
2021/10/03 05:52:41;;;;;;;9.63;6.00;;;15.40;99.90;;;;;;5031639;28;20176;-82
2021/10/03 05:55:08;;;;;;;11.00;6.57;;;15.50;99.90;;;;;;5028677;28;20217;-82
2021/10/03 05:57:33;;;;;;;10.67;6.10;;;15.50;99.90;;;;;;5033812;28;20177;-81
2021/10/03 05:59:59;;;;;;;9.67;7.30;;;15.40;99.90;;;;;;5033686;28;20908;-82
2021/10/03 06:02:24;;;;;;;11.20;7.10;;;15.40;99.90;;;;;;5032778;28;20176;-83
2021/10/03 06:04:50;;;;;;;8.97;6.43;;;15.40;99.90;;;;;;5030645;28;20222;-82
2021/10/03 06:07:16;;;;;;;9.47;6.87;;;15.40;99.90;;;;;;5033464;28;20244;-82
2021/10/03 06:09:45;;;;;;;11.37;6.43;;;15.40;99.90;;;;;;5029583;28;20228;-83
2021/10/03 06:12:10;;;;;;;9.33;7.10;;;15.40;99.90;;;;;;5012854;28;20649;-80
2021/10/03 06:14:36;;;;;;;14.47;8.30;;;15.40;99.90;;;;;;5017992;28;20432;-82
2021/10/03 06:17:03;;;;;;;10.03;6.67;;;15.40;99.90;;;;;;5036006;28;20220;-81
2021/10/03 06:19:28;;;;;;;11.80;7.00;;;15.40;99.90;;;;;;5032802;28;20232;-82
2021/10/03 06:21:54;;;;;;;9.53;6.70;;;15.40;99.90;;;;;;5035681;28;20423;-80
2021/10/03 06:24:22;;;;;;;15.60;6.93;;;15.40;99.90;;;;;;5044232;28;20209;-81
2021/10/03 06:26:48;;;;;;;10.90;7.40;;;15.40;99.90;;;;;;5026659;28;20481;-80
2021/10/03 06:29:15;;;;;;;12.60;7.37;;;15.50;99.90;;;;;;5033113;28;20420;-82
2021/10/03 06:31:41;;;;;;;9.73;6.10;;;15.50;99.90;;;;;;5038439;28;20443;-81
2021/10/03 06:34:06;;;;;;;11.07;6.10;;;15.70;99.90;;;;;;5038122;28;20440;-83
2021/10/03 06:36:32;;;;;;;9.70;7.50;;;16.10;99.90;;;;;;5018720;28;20209;-83
2021/10/03 06:38:57;;;;;;;10.07;7.20;;;16.40;99.90;;;;;;5032412;28;20189;-84
2021/10/03 06:41:23;;;;;;;9.90;6.33;;;16.70;99.90;;;;;;5039856;28;20169;-84
2021/10/03 06:43:49;;;;;;;9.87;6.80;;;16.90;99.90;;;;;;5039333;28;20892;-84
2021/10/03 06:46:15;;;;;;;10.77;7.03;;;16.90;99.90;;;;;;5039390;28;20197;-84
2021/10/03 06:48:40;;;;;;;11.37;7.63;;;17.10;99.90;;;;;;5039387;28;20458;-83
2021/10/03 06:51:06;;;;;;;10.17;6.20;;;17.20;99.90;;;;;;5038477;28;20185;-84
2021/10/03 06:53:33;;;;;;;17.23;8.77;;;17.10;99.90;;;;;;5038296;28;20189;-84
2021/10/03 06:56:00;;;;;;;8.77;7.03;;;17.00;99.90;;;;;;5037474;28;20199;-83
2021/10/03 06:58:26;;;;;;;8.27;5.93;;;17.20;99.90;;;;;;5038145;28;20431;-82
2021/10/03 07:00:52;;;;;;;12.13;7.30;;;17.00;99.90;;;;;;5038500;28;20424;-83
2021/10/03 07:03:18;;;;;;;9.30;6.27;;;16.90;99.90;;;;;;5038054;28;20437;-84
2021/10/03 07:05:43;;;;;;;10.43;7.47;;;17.00;99.90;;;;;;5036930;28;20689;-83
2021/10/03 07:08:09;;;;;;;10.63;6.90;;;17.00;99.90;;;;;;5036175;28;20565;-83
2021/10/03 07:10:37;;;;;;;10.07;6.83;;;16.70;99.90;;;;;;5037401;28;20634;-83
2021/10/03 07:13:03;;;;;;;10.10;6.87;;;16.60;99.90;;;;;;5035803;28;20183;-84
2021/10/03 07:15:28;;;;;;;8.90;6.03;;;16.50;99.90;;;;;;5024080;28;20475;-83
2021/10/03 07:18:12;;;;;;;10.67;6.70;;;16.40;99.90;;;;;;5026857;28;20186;-85
2021/10/03 07:20:38;;;;;;;11.90;8.10;;;16.30;99.90;;;;;;5035975;28;20343;-82
2021/10/03 07:23:03;;;;;;;12.33;7.73;;;16.30;99.90;;;;;;5036695;28;20493;-81
2021/10/03 07:25:29;;;;;;;10.47;7.17;;;16.20;99.90;;;;;;5044745;28;20471;-82
2021/10/03 07:27:54;;;;;;;11.00;7.33;;;16.90;99.90;;;;;;5043470;28;20193;-82
2021/10/03 07:30:20;;;;;;;17.13;8.63;;;17.10;99.90;;;;;;5035906;28;20684;-82
2021/10/03 07:32:49;;;;;;;9.10;6.03;;;17.00;99.90;;;;;;5035404;28;20225;-82
2021/10/03 07:35:14;;;;;;;10.40;6.90;;;16.80;99.90;;;;;;5036177;28;20180;-82
2021/10/03 07:37:40;;;;;;;13.73;6.87;;;16.80;99.90;;;;;;5035281;28;20482;-80
2021/10/03 07:40:12;;;;;;;9.60;7.00;;;16.80;99.90;;;;;;5035067;28;20648;-80
2021/10/03 07:42:38;;;;;;;10.80;7.13;;;16.80;99.90;;;;;;5027397;28;20209;-79
2021/10/03 07:45:08;;;;;;;10.57;6.97;;;16.80;99.90;;;;;;5035311;28;20462;-82
2021/10/03 07:47:34;;;;;;;10.03;6.80;;;16.80;99.90;;;;;;5037127;28;20198;-81
2021/10/03 07:49:59;;;;;;;10.90;6.80;;;16.80;99.90;;;;;;5035906;28;20409;-80
2021/10/03 07:52:28;;;;;;;11.80;8.20;;;16.90;99.90;;;;;;5034832;28;20542;-81
2021/10/03 07:54:56;;;;;;;10.20;7.03;;;16.80;99.90;;;;;;5034996;28;20191;-81
2021/10/03 07:57:22;;;;;;;10.57;7.07;;;16.90;99.90;;;;;;5033709;28;20891;-79
2021/10/03 07:59:48;;;;;;;11.00;7.00;;;16.90;99.90;;;;;;5035088;28;20491;-79
2021/10/03 08:02:13;;;;;;;10.50;6.53;;;17.00;99.90;;;;;;5035025;28;20831;-79
2021/10/03 08:04:39;;;;;;;17.50;6.57;;;17.00;99.90;;;;;;5034943;28;20204;-80
2021/10/03 08:07:05;;;;;;;14.20;7.37;;;16.90;99.90;;;;;;5034477;28;20221;-80
2021/10/03 08:09:30;;;;;;;8.43;5.53;;;16.80;99.90;;;;;;5034559;28;20182;-82
2021/10/03 08:11:56;;;;;;;10.03;7.43;;;16.70;99.90;;;;;;5035264;28;20174;-81
2021/10/03 08:14:28;;;;;;;9.50;6.20;;;16.70;99.90;;;;;;5021716;28;20185;-82
2021/10/03 08:16:53;;;;;;;8.43;6.50;;;16.70;99.90;;;;;;5035618;28;20219;-85
2021/10/03 08:19:19;;;;;;;9.87;7.10;;;16.60;99.90;;;;;;5036398;28;20428;-79
2021/10/03 08:21:47;;;;;;;9.50;7.20;;;16.60;99.90;;;;;;5038447;28;20181;-81
2021/10/03 08:24:12;;;;;;;10.70;6.77;;;16.60;99.90;;;;;;5039975;28;20220;-82
2021/10/03 08:26:38;;;;;;;13.60;7.87;;;16.70;99.90;;;;;;5036437;28;20511;-80
2021/10/03 08:29:04;;;;;;;10.73;6.57;;;16.80;99.90;;;;;;5035549;28;20655;-81
2021/10/03 08:31:29;;;;;;;10.37;7.53;;;17.00;99.90;;;;;;5034926;28;20656;-80
2021/10/03 08:33:55;;;;;;;9.87;6.40;;;17.10;99.90;;;;;;5034046;28;20239;-79
2021/10/03 08:36:21;;;;;;;10.90;7.03;;;17.20;99.90;;;;;;5033540;28;20229;-79
2021/10/03 08:38:46;;;;;;;9.57;6.90;;;17.20;99.90;;;;;;5034458;28;20193;-80
2021/10/03 08:41:12;;;;;;;10.00;6.53;;;17.30;99.90;;;;;;5034074;28;20209;-80
2021/10/03 08:43:37;;;;;;;12.47;7.67;;;17.30;99.90;;;;;;5031073;28;20546;-79
2021/10/03 08:46:05;;;;;;;11.97;7.30;;;17.40;99.90;;;;;;5035145;28;20202;-78
2021/10/03 08:48:31;;;;;;;9.80;7.47;;;17.40;99.90;;;;;;5035687;28;20207;-80
2021/10/03 08:50:56;;;;;;;10.50;7.50;;;17.50;99.90;;;;;;5034541;28;20467;-80
2021/10/03 08:53:22;;;;;;;11.30;6.97;;;17.60;99.90;;;;;;5034513;28;20188;-79
2021/10/03 08:55:49;;;;;;;10.60;7.60;;;17.50;99.90;;;;;;5035326;28;20215;-81
2021/10/03 08:58:15;;;;;;;10.37;7.77;;;17.60;99.90;;;;;;5033240;28;20250;-80
2021/10/03 09:00:49;;;;;;;8.97;6.43;;;17.60;99.90;;;;;;5034852;28;20926;-82
2021/10/03 09:03:17;;;;;;;9.40;7.37;;;17.70;99.90;;;;;;5036161;28;20175;-81
2021/10/03 09:05:54;;;;;;;9.50;7.10;;;17.70;99.90;;;;;;5034506;28;20867;-80
2021/10/03 09:08:25;;;;;;;11.37;7.00;;;17.70;99.90;;;;;;5033606;28;20979;-81
2021/10/03 09:11:07;;;;;;;10.70;6.53;;;17.60;99.90;;;;;;5035121;28;20431;-80
2021/10/03 09:13:32;;;;;;;11.60;7.17;;;17.60;99.90;;;;;;5035250;28;20423;-81
2021/10/03 09:16:06;;;;;;;8.33;6.03;;;17.70;99.90;;;;;;5032811;28;20527;-81
2021/10/03 09:18:43;;;;;;;8.53;6.73;;;17.70;99.90;;;;;;5034961;28;20165;-80
2021/10/03 09:21:30;;;;;;;9.17;6.83;;;17.70;99.90;;;;;;5034596;28;20599;-81
2021/10/03 09:24:20;;;;;;;12.13;6.37;;;17.70;99.90;;;;;;5033921;28;20447;-81
2021/10/03 09:27:05;;;;;;;10.00;6.63;;;17.80;99.90;;;;;;5035327;28;20518;-82
2021/10/03 09:29:33;;;;;;;12.03;7.30;;;17.90;99.90;;;;;;5051355;28;20489;-82
2021/10/03 09:32:16;;;;;;;8.73;6.13;;;17.80;99.90;;;;;;5033999;28;20481;-81
2021/10/03 09:34:51;;;;;;;9.40;6.33;;;17.90;99.90;;;;;;5017478;28;20427;-81
2021/10/03 09:37:26;;;;;;;10.90;6.10;;;18.00;99.90;;;;;;5034717;28;20427;-82
2021/10/03 09:40:13;;;;;;;9.20;6.67;;;18.00;99.90;;;;;;5017856;28;20447;-80
2021/10/03 09:42:42;;;;;;;9.77;7.13;;;17.90;99.90;;;;;;5035375;28;20416;-79
2021/10/03 09:45:16;;;;;;;9.73;6.97;;;18.00;99.90;;;;;;5034433;28;20467;-82
2021/10/03 09:47:44;;;;;;;10.03;6.73;;;18.10;99.90;;;;;;5034528;28;20415;-81
2021/10/03 09:50:12;;;;;;;10.67;7.10;;;18.10;99.90;;;;;;5017638;28;20447;-81
2021/10/03 09:52:41;;;;;;;9.27;6.23;;;18.20;99.90;;;;;;5038290;28;20408;-81
2021/10/03 09:55:10;;;;;;;14.33;7.07;;;18.30;99.90;;;;;;5037475;28;20444;-81
2021/10/03 09:57:40;;;;;;;8.73;6.10;;;18.50;99.90;;;;;;5037269;28;20492;-81
2021/10/03 10:00:06;;;;;;;8.63;5.93;;;18.40;99.90;;;;;;5037434;28;20459;-81
2021/10/03 10:02:33;;;;;;;10.77;6.93;;;18.50;99.90;;;;;;5037038;28;20423;-82
2021/10/03 10:04:59;;;;;;;12.57;6.33;;;18.60;99.90;;;;;;5037097;28;20982;-81
2021/10/03 10:07:25;;;;;;;8.50;6.07;;;18.60;99.90;;;;;;5038172;28;20447;-81
2021/10/03 10:09:51;;;;;;;10.77;7.03;;;18.70;99.90;;;;;;5039409;28;20411;-81
2021/10/03 10:12:23;;;;;;;12.57;7.03;;;18.80;99.90;;;;;;5042194;28;20903;-81
2021/10/03 10:15:01;;;;;;;10.33;6.53;;;18.90;99.90;;;;;;5036555;28;20456;-82
2021/10/03 10:17:35;;;;;;;8.40;6.50;;;19.00;99.90;;;;;;5038282;28;20418;-81
2021/10/03 10:20:30;;;;;;;7.33;6.10;;;19.00;99.90;;;;;;5038405;28;20418;-81
2021/10/03 10:22:55;;;;;;;9.37;6.50;;;19.00;99.90;;;;;;5033242;28;20442;-82
2021/10/03 10:25:49;;;;;;;9.20;6.73;;;19.10;99.90;;;;;;5036961;28;20460;-82
2021/10/03 10:28:22;;;;;;;9.67;6.37;;;19.10;99.90;;;;;;5037985;28;20203;-80
2021/10/03 10:31:22;;;;;;;9.53;6.57;;;19.20;99.90;;;;;;5037436;28;20403;-81
2021/10/03 10:33:51;;;;;;;7.40;5.37;;;19.30;99.90;;;;;;5022087;28;20550;-81
2021/10/03 10:36:19;;;;;;;8.63;6.40;;;19.40;99.90;;;;;;5038291;28;20424;-82
2021/10/03 10:39:09;;;;;;;7.87;5.70;;;19.50;99.90;;;;;;5038534;28;20421;-82
2021/10/03 10:41:44;;;;;;;6.50;4.93;;;19.60;99.90;;;;;;5036398;28;20488;-81
2021/10/03 10:44:34;;;;;;;8.27;5.70;;;19.70;99.90;;;;;;5036140;28;20561;-79
2021/10/03 10:47:19;;;;;;;9.17;6.60;;;19.70;99.90;;;;;;5034045;28;20450;-81
2021/10/03 10:49:54;;;;;;;7.40;6.10;;;19.80;99.90;;;;;;5035373;28;20418;-82
2021/10/03 10:52:20;;;;;;;9.10;6.67;;;19.80;99.90;;;;;;5035326;28;20410;-81
2021/10/03 10:55:11;;;;;;;8.30;6.10;;;19.90;99.90;;;;;;5039554;28;20414;-82
2021/10/03 10:57:48;;;;;;;9.37;6.17;;;20.00;99.90;;;;;;5037424;28;20415;-82
2021/10/03 11:00:27;;;;;;;7.20;5.40;;;19.90;99.90;;;;;;5036051;28;20530;-82
2021/10/03 11:03:04;;;;;;;7.57;6.00;;;20.00;99.90;;;;;;5035154;28;20755;-81
2021/10/03 11:05:40;;;;;;;9.50;6.03;;;20.00;99.90;;;;;;5036511;28;20465;-81
2021/10/03 11:08:11;;;;;;;9.60;6.30;;;20.20;99.90;;;;;;5035530;28;20489;-82
2021/10/03 11:11:09;;;;;;;7.60;5.37;;;20.20;99.90;;;;;;5037341;28;20418;-81
2021/10/03 11:13:41;;;;;;;7.00;5.63;;;20.40;99.90;;;;;;5037076;28;20759;-82
2021/10/03 11:16:33;;;;;;;9.80;6.33;;;20.60;99.90;;;;;;5036964;28;20451;-80
2021/10/03 11:19:11;;;;;;;9.00;6.30;;;20.60;99.90;;;;;;5031011;28;20407;-81
2021/10/03 11:21:48;;;;;;;7.77;6.10;;;20.80;99.90;;;;;;5020182;28;21004;-82
2021/10/03 11:24:18;;;;;;;6.47;4.47;;;20.70;99.90;;;;;;5035422;28;20985;-81
2021/10/03 11:26:54;;;;;;;7.47;5.33;;;20.70;99.90;;;;;;5036332;28;20531;-81
2021/10/03 11:29:22;;;;;;;7.10;5.80;;;20.80;99.90;;;;;;5037227;28;20414;-81
2021/10/03 11:31:55;;;;;;;11.10;6.07;;;20.90;99.90;;;;;;5035866;28;20501;-81
2021/10/03 11:34:41;;;;;;;8.10;5.37;;;20.90;99.90;;;;;;5035050;28;20400;-81
2021/10/03 11:37:15;;;;;;;7.30;5.43;;;20.90;99.90;;;;;;5036945;28;20435;-82
2021/10/03 11:39:44;;;;;;;7.53;5.60;;;20.90;99.90;;;;;;5035704;28;20758;-82
2021/10/03 11:42:34;;;;;;;9.37;5.77;;;20.90;99.90;;;;;;5035594;28;20474;-81
2021/10/03 11:45:11;;;;;;;7.00;5.80;;;20.90;99.90;;;;;;5036188;28;21009;-81
2021/10/03 11:47:49;;;;;;;7.23;5.23;;;20.90;99.90;;;;;;5036156;28;20424;-82
2021/10/03 11:50:18;;;;;;;6.77;5.20;;;21.00;99.90;;;;;;5035329;28;20420;-81
2021/10/03 11:52:45;;;;;;;5.70;4.37;;;21.00;99.90;;;;;;5035994;28;20941;-81
2021/10/03 11:55:13;;;;;;;9.03;6.57;;;21.10;99.90;;;;;;5036142;28;20416;-80
2021/10/03 11:57:49;;;;;;;8.60;5.47;;;21.20;99.90;;;;;;5036638;28;20462;-80
2021/10/03 12:00:19;;;;;;;6.63;5.10;;;21.20;99.90;;;;;;5036404;28;20408;-81
2021/10/03 12:02:53;;;;;;;6.60;4.70;;;21.20;99.90;;;;;;5035470;28;20778;-81
2021/10/03 12:05:25;;;;;;;6.20;5.17;;;21.20;99.90;;;;;;5035495;28;20916;-81
2021/10/03 12:08:10;;;;;;;6.40;4.87;;;21.30;99.90;;;;;;5036569;28;21000;-81
2021/10/03 12:10:37;;;;;;;7.30;5.50;;;21.30;99.90;;;;;;5037240;28;20467;-79
2021/10/03 12:13:16;;;;;;;6.30;4.90;;;21.30;99.90;;;;;;5035581;28;20415;-79
2021/10/03 12:16:01;;;;;;;6.13;4.83;;;21.30;99.90;;;;;;5036789;28;20423;-81
2021/10/03 12:18:28;;;;;;;6.10;5.10;;;21.30;99.90;;;;;;5036133;28;20420;-80
2021/10/03 12:21:11;;;;;;;8.13;5.80;;;21.30;99.90;;;;;;5035736;28;20416;-81
2021/10/03 12:23:39;;;;;;;8.50;5.80;;;21.30;99.90;;;;;;5035727;28;20416;-79
2021/10/03 12:26:20;;;;;;;7.10;5.53;;;21.40;99.90;;;;;;5037718;28;20434;-80
2021/10/03 12:29:04;;;;;;;6.87;5.20;;;21.40;99.90;;;;;;5037149;28;20750;-81
2021/10/03 12:31:33;;;;;;;6.97;5.00;;;21.40;99.90;;;;;;5036198;28;20414;-81
2021/10/03 12:33:58;;;;;;;11.00;5.30;;;21.50;99.90;;;;;;5037446;28;20809;-81
2021/10/03 12:36:24;;;;;;;6.70;5.30;;;21.60;99.90;;;;;;5020905;28;20523;-82
2021/10/03 12:38:49;;;;;;;6.70;4.93;;;21.60;99.90;;;;;;5025791;28;20256;-80
2021/10/03 12:41:15;;;;;;;7.53;5.63;;;21.60;99.90;;;;;;5045531;28;20185;-80
2021/10/03 12:43:51;;;;;;;7.00;5.17;;;21.60;99.90;;;;;;5051518;28;20192;-81
2021/10/03 12:46:17;;;;;;;5.10;4.60;;;21.60;99.90;;;;;;5044488;28;20254;-81
2021/10/03 12:48:45;;;;;;;11.27;5.20;;;21.70;99.90;;;;;;5048715;28;20412;-82